Time;durP1;ratioP1;P1;durP2;ratioP2;P2;SDS_P1;SDS_P2;PMS_P1;PMS_P2;Temp;Humidity;BMP_temperature;BMP_pressure;BME280_temperature;BME280_humidity;BME280_pressure;Samples;Min_cycle;Max_cycle;Signal;HPM_P1;HPM_P2
2022/04/18 00:00:13;;;;;;;10.15;5.75;;;;;;;-142.75;100.00;77956.34;5017692;28;20044;-64
2022/04/18 00:02:39;;;;;;;9.35;6.10;;;;;;;-142.75;100.00;77964.22;5018490;28;20974;-64
2022/04/18 00:05:05;;;;;;;10.83;6.10;;;;;;;-142.75;100.00;77968.16;5017815;28;20034;-64
2022/04/18 00:07:30;;;;;;;;;;;;;;;-142.75;100.00;77970.13;5018761;28;20149;-64
2022/04/18 00:09:55;;;;;;;10.80;6.17;;;;;;;-142.75;100.00;77983.91;5018144;28;20448;-64
2022/04/18 00:12:21;;;;;;;10.03;5.73;;;;;;;-142.75;100.00;77983.91;5018006;28;20037;-64
2022/04/18 00:14:46;;;;;;;9.60;5.73;;;;;;;-142.75;100.00;77979.97;5018203;28;20284;-64
2022/04/18 00:17:11;;;;;;;12.70;5.80;;;;;;;-142.75;100.00;77976.03;5017811;28;20645;-64
2022/04/18 00:19:37;;;;;;;10.88;6.18;;;;;;;-142.75;100.00;77983.91;5019185;28;20524;-64
2022/04/18 00:22:03;;;;;;;11.88;6.60;;;;;;;-142.75;100.00;77987.84;5037618;28;20554;-64
2022/04/18 00:24:29;;;;;;;13.30;6.43;;;;;;;-142.75;100.00;77987.84;5037773;28;20033;-65
2022/04/18 00:26:54;;;;;;;13.40;6.95;;;;;;;-142.75;100.00;78005.56;5037478;28;20110;-64
2022/04/18 00:29:19;;;;;;;10.97;6.27;;;;;;;-142.75;100.00;78007.53;5037071;28;20029;-64
2022/04/18 00:31:45;;;;;;;11.13;7.05;;;;;;;-142.75;100.00;78005.56;5037780;28;20099;-65
2022/04/18 00:34:10;;;;;;;9.57;6.97;;;;;;;-142.75;100.00;78007.53;5037738;28;20021;-64
2022/04/18 00:36:35;;;;;;;10.13;5.97;;;;;;;-142.75;100.00;78003.59;5037968;28;20586;-65
2022/04/18 00:39:00;;;;;;;11.07;6.13;;;;;;;-142.75;100.00;78015.41;5036796;28;20267;-64
2022/04/18 00:41:26;;;;;;;10.38;6.72;;;;;;;-142.75;100.00;78009.50;5038647;28;20833;-64
2022/04/18 00:43:52;;;;;;;11.95;6.97;;;;;;;-142.75;100.00;78019.34;5037537;28;20041;-65
2022/04/18 00:46:18;;;;;;;14.60;7.00;;;;;;;-142.75;100.00;78023.28;5019872;28;20025;-65
2022/04/18 00:48:44;;;;;;;12.40;6.23;;;;;;;-142.75;100.00;78027.22;5036688;28;20037;-64
2022/04/18 00:51:13;;;;;;;11.52;7.43;;;;;;;-142.75;100.00;78023.28;5037821;28;20585;-64
2022/04/18 00:53:40;;;;;;;10.03;6.33;;;;;;;-142.75;100.00;78023.28;5038155;28;20028;-64
2022/04/18 00:56:07;;;;;;;12.47;7.03;;;;;;;-142.75;100.00;78025.25;5037190;28;20027;-64
2022/04/18 00:58:33;;;;;;;10.63;6.83;;;;;;;-142.75;100.00;78031.16;5036736;28;20156;-64
2022/04/18 01:00:59;;;;;;;10.68;6.60;;;;;;;-142.75;100.00;78039.03;5037423;28;20029;-63
2022/04/18 01:03:25;;;;;;;;;;;;;;;-142.75;100.00;78042.97;5038077;28;20028;-64
2022/04/18 01:05:51;;;;;;;10.57;6.57;;;;;;;-142.75;100.00;78046.91;5037452;28;20375;-64
2022/04/18 01:08:16;;;;;;;12.13;7.35;;;;;;;-142.75;100.00;78058.72;5038110;28;20907;-64
2022/04/18 01:10:43;;;;;;;10.88;7.32;;;;;;;-142.75;100.00;78066.63;5041778;28;20040;-64
2022/04/18 01:13:09;;;;;;;11.03;6.47;;;;;;;-142.75;100.00;78064.66;5023257;28;20056;-64
2022/04/18 01:15:34;;;;;;;11.23;6.57;;;;;;;-142.75;100.00;78058.72;5041093;28;20112;-64
2022/04/18 01:17:59;;;;;;;15.18;7.18;;;;;;;-142.75;100.00;78052.81;5039427;28;20035;-65
2022/04/18 01:20:34;;;;;;;11.55;7.18;;;;;;;-142.75;100.00;78048.88;5041175;28;20025;-64
2022/04/18 01:23:01;;;;;;;9.40;6.43;;;;;;;-142.75;100.00;78050.84;5040162;28;20058;-64
2022/04/18 01:30:54;;;;;;;12.57;6.23;;;;;;;-142.75;100.00;78042.97;5041280;28;20243;-64
2022/04/18 01:33:20;;;;;;;10.38;6.18;;;;;;;-142.75;100.00;78035.09;5040157;28;20024;-64
2022/04/18 01:35:46;;;;;;;10.13;6.43;;;;;;;-142.75;100.00;78035.09;5040902;28;20028;-64
2022/04/18 01:38:11;;;;;;;10.48;6.45;;;;;;;-142.75;100.00;78042.97;5039476;28;20047;-63
2022/04/18 01:40:36;;;;;;;12.23;6.75;;;;;;;-142.75;100.00;78056.78;5041226;28;20021;-64
2022/04/18 01:43:02;;;;;;;12.85;6.70;;;;;;;-142.75;100.00;78070.56;5040418;28;20047;-64
2022/04/18 01:45:28;;;;;;;10.75;6.85;;;;;;;-142.75;100.00;78074.50;5022833;28;20036;-64
2022/04/18 01:47:53;;;;;;;;;;;;;;;-142.75;100.00;78090.25;5040071;28;20029;-64
2022/04/18 01:50:18;;;;;;;15.90;7.03;;;;;;;-142.75;100.00;78090.25;5040040;28;19920;-64
2022/04/18 01:52:44;;;;;;;11.80;5.82;;;;;;;-142.75;100.00;78098.13;5039822;28;20029;-63
2022/04/18 01:55:09;;;;;;;12.60;5.72;;;;;;;-142.75;100.00;78098.13;5039990;28;20721;-64
2022/04/18 01:57:34;;;;;;;12.33;6.70;;;;;;;-142.75;100.00;78117.81;5039841;28;20036;-64
2022/04/18 02:00:00;;;;;;;10.67;6.20;;;;;;;-142.75;100.00;78125.69;5039202;28;20329;-63
2022/04/18 02:02:25;;;;;;;10.10;6.22;;;;;;;-142.75;100.00;78129.63;5040751;28;20028;-64
2022/04/18 02:04:51;;;;;;;10.05;6.25;;;;;;;-142.75;100.00;78129.63;5040161;28;20041;-65
2022/04/18 02:07:16;;;;;;;9.60;5.78;;;;;;;-142.75;100.00;78141.44;5039724;28;20021;-64
2022/04/18 02:09:41;;;;;;;9.80;5.93;;;;;;;-142.75;100.00;78151.28;5039611;28;20025;-64
2022/04/18 02:12:07;;;;;;;9.83;5.90;;;;;;;-142.75;100.00;78169.00;5039975;28;20052;-64
2022/04/18 02:14:32;;;;;;;10.98;5.50;;;;;;;-142.75;100.00;78163.09;5021926;28;20330;-64
2022/04/18 02:16:58;;;;;;;12.98;6.38;;;;;;;-142.75;100.00;78159.16;5039280;28;20031;-63
2022/04/18 02:19:23;;;;;;;8.27;6.25;;;;;;;-142.75;100.00;78145.38;5038423;28;20032;-67
2022/04/18 02:21:48;;;;;;;9.90;5.70;;;;;;;-142.75;100.00;78153.25;5039041;28;20036;-64
2022/04/18 02:24:14;;;;;;;10.05;5.50;;;;;;;-142.75;100.00;78151.28;5039507;28;20025;-64
2022/04/18 02:26:40;;;;;;;8.88;5.28;;;;;;;-142.75;100.00;78137.50;5022073;28;20029;-64
2022/04/18 02:29:05;;;;;;;10.43;5.15;;;;;;;-142.75;100.00;78137.50;5038302;28;20472;-64
2022/04/18 02:31:30;;;;;;;9.55;5.20;;;;;;;-142.75;100.00;78129.63;5040271;28;20033;-65
2022/04/18 02:33:56;;;;;;;10.68;5.00;;;;;;;-142.75;100.00;78113.88;5039591;28;20033;-64
2022/04/18 02:36:21;;;;;;;8.05;5.53;;;;;;;-142.75;100.00;78117.81;5038966;28;20203;-65
2022/04/18 02:38:46;;;;;;;7.90;4.97;;;;;;;-142.75;100.00;78119.78;5038168;28;20489;-64
2022/04/18 02:41:12;;;;;;;9.57;5.05;;;;;;;-142.75;100.00;78125.69;5039782;28;20028;-64
2022/04/18 02:43:37;;;;;;;9.57;5.47;;;;;;;-142.75;100.00;78145.38;5039704;28;20225;-67
2022/04/18 02:46:02;;;;;;;8.30;5.07;;;;;;;-142.75;100.00;78149.31;5038837;28;20282;-66
2022/04/18 02:48:31;;;;;;;9.30;4.93;;;;;;;-142.75;100.00;78157.19;5038627;28;20087;-67
2022/04/18 02:50:57;;;;;;;6.73;4.37;;;;;;;-142.75;100.00;78170.97;5039062;28;20024;-67
2022/04/18 02:53:22;;;;;;;9.60;5.80;;;;;;;-142.75;100.00;78165.06;5039468;28;20035;-67
2022/04/18 02:55:47;;;;;;;7.40;4.53;;;;;;;-142.75;100.00;78163.09;5038710;28;20031;-63
2022/04/18 02:58:12;;;;;;;8.13;5.10;;;;;;;-142.75;100.00;78157.19;5038678;28;20329;-64
2022/04/18 03:00:38;;;;;;;6.55;4.45;;;;;;;-142.75;100.00;78161.13;5039445;28;20259;-64
2022/04/18 03:03:03;;;;;;;7.70;4.47;;;;;;;-142.75;100.00;78161.13;5038362;28;20131;-64
2022/04/18 03:05:28;;;;;;;7.93;4.50;;;;;;;-142.75;100.00;78170.97;5039258;28;20665;-64
2022/04/18 03:07:54;;;;;;;9.95;5.63;;;;;;;-142.75;100.00;78170.97;5020444;28;20087;-63
2022/04/18 03:11:02;;;;;;;7.15;4.80;;;;;;;-142.75;100.00;78176.88;5038538;28;20025;-64
2022/04/18 03:13:04;;;;;;;7.40;4.87;;;;;;;-142.75;100.00;78180.81;5034959;28;20119;-64
2022/04/18 03:15:30;;;;;;;7.03;4.40;;;;;;;-142.75;100.00;78196.59;5023113;28;20041;-64
2022/04/18 03:17:55;;;;;;;6.95;4.28;;;;;;;-142.75;100.00;78212.34;5019807;28;20086;-64
2022/04/18 03:20:21;;;;;;;6.20;3.92;;;;;;;-142.75;100.00;78222.19;5038311;28;20506;-64
2022/04/18 03:22:46;;;;;;;7.83;4.50;;;;;;;-142.75;100.00;78214.31;5038639;28;20052;-64
2022/04/18 03:25:11;;;;;;;6.47;4.67;;;;;;;-142.75;100.00;78202.50;5038259;28;20271;-64
2022/04/18 03:27:37;;;;;;;8.03;4.27;;;;;;;-142.75;100.00;78204.47;5034805;28;20439;-64
2022/04/18 03:30:02;;;;;;;8.02;4.38;;;;;;;-142.75;100.00;78208.41;5000164;28;20291;-64
2022/04/18 03:32:27;;;;;;;10.40;4.82;;;;;;;-142.75;100.00;78206.44;5018372;28;20120;-64
2022/04/18 03:34:53;;;;;;;7.03;4.87;;;;;;;-142.75;100.00;78196.59;5018680;28;20116;-64
2022/04/18 03:40:04;;;;;;;6.67;4.77;;;;;;;-142.75;100.00;78196.59;5006329;28;20278;-64
2022/04/18 03:42:29;;;;;;;6.50;4.45;;;;;;;-142.75;100.00;78208.41;5018765;28;20029;-64
2022/04/18 03:44:58;;;;;;;8.45;4.75;;;;;;;-142.75;100.00;78208.41;5018859;28;20168;-64
2022/04/18 03:47:24;;;;;;;8.27;4.87;;;;;;;-142.75;100.00;78204.47;4999942;28;20026;-64
2022/04/18 03:49:49;;;;;;;7.05;4.35;;;;;;;-142.75;100.00;78208.41;5017580;28;20034;-65
2022/04/18 03:52:15;;;;;;;7.30;4.15;;;;;;;-142.75;100.00;78220.22;5018479;28;20044;-64
2022/04/18 03:54:40;;;;;;;6.78;3.78;;;;;;;-142.75;100.00;78214.31;5018603;28;20423;-64
2022/04/18 03:57:06;;;;;;;7.05;3.60;;;;;;;-142.75;100.00;78208.41;5018133;28;20108;-64
2022/04/18 03:59:32;;;;;;;5.40;3.33;;;;;;;-142.75;100.00;78208.41;5017830;28;20021;-64
2022/04/18 04:01:58;;;;;;;5.68;3.53;;;;;;;-142.75;100.00;78200.53;5017933;28;20040;-63
2022/04/18 04:04:23;;;;;;;6.72;3.95;;;;;;;-142.75;100.00;78192.66;5018506;28;20685;-64
2022/04/18 04:06:48;;;;;;;7.70;4.00;;;;;;;-142.75;100.00;78192.66;5000375;28;20407;-64
2022/04/18 04:09:14;;;;;;;5.28;2.97;;;;;;;-142.75;100.00;78180.81;5017507;28;20120;-64
2022/04/18 04:11:39;;;;;;;6.30;2.97;;;;;;;-142.75;100.00;78172.94;5018962;28;20507;-64
2022/04/18 04:14:04;;;;;;;6.33;3.47;;;;;;;-142.75;100.00;78170.97;5017958;28;20276;-64
2022/04/18 04:16:30;;;;;;;5.85;3.55;;;;;;;-142.75;100.00;78165.06;5000645;28;20677;-64
2022/04/18 04:18:55;;;;;;;5.25;3.50;;;;;;;-142.75;100.00;78176.88;5042911;22;20050;-65
2022/04/18 04:21:21;;;;;;;4.07;2.58;;;;;;;-142.75;100.00;78172.94;5018194;28;20025;-65
2022/04/18 04:23:46;;;;;;;6.57;3.58;;;;;;;-142.75;100.00;78174.91;5018139;28;20048;-65
2022/04/18 04:26:12;;;;;;;5.03;3.28;;;;;;;-142.75;100.00;78186.75;5018173;28;20021;-65
2022/04/18 04:28:37;;;;;;;5.30;3.30;;;;;;;-142.75;100.00;78198.56;5017568;28;20029;-65
2022/04/18 04:31:03;;;;;;;6.97;4.07;;;;;;;-142.75;100.00;78224.16;5017832;28;20094;-65
2022/04/18 04:33:32;;;;;;;9.10;3.30;;;;;;;-142.75;100.00;78239.91;5018732;28;20395;-65
2022/04/18 04:35:58;;;;;;;6.73;3.87;;;;;;;-142.75;100.00;78261.56;5017805;28;20117;-65
2022/04/18 04:38:26;;;;;;;5.27;3.20;;;;;;;-142.75;100.00;78271.41;5017292;28;20036;-65
2022/04/18 04:40:53;;;;;;;5.23;3.07;;;;;;;-142.75;100.00;78263.53;5018074;28;20025;-66
2022/04/18 04:43:19;;;;;;;4.37;3.00;;;;;;;-142.75;100.00;78261.56;5019100;28;20104;-66
2022/04/18 04:45:45;;;;;;;5.07;3.30;;;;;;;-142.75;100.00;78263.53;5021548;28;20037;-65
2022/04/18 04:48:10;;;;;;;5.63;3.80;;;;;;;-142.75;100.00;78279.28;5020849;28;20087;-66
2022/04/18 04:50:36;;;;;;;5.43;3.13;;;;;;;-142.75;100.00;78269.44;5021895;28;20057;-66
2022/04/18 04:53:01;;;;;;;5.88;3.17;;;;;;;-142.75;100.00;78249.75;5020896;28;20112;-65
2022/04/18 04:55:27;;;;;;;5.43;2.75;;;;;;;-142.75;100.00;78220.22;5021899;28;20037;-65
2022/04/18 04:57:53;;;;;;;5.90;2.60;;;;;;;-142.75;100.00;78208.41;5020828;28;20141;-65
2022/04/18 05:00:19;;;;;;;6.47;2.92;;;;;;;-142.75;100.00;78186.75;5021443;28;20767;-65
2022/04/18 05:02:45;;;;;;;6.83;3.13;;;;;;;-142.75;100.00;78169.00;5021306;28;20033;-65
2022/04/18 05:05:10;;;;;;;5.45;2.88;;;;;;;-142.75;100.00;78157.19;5019990;28;20061;-65
2022/04/18 05:07:35;;;;;;;4.30;2.70;;;;;;;-142.75;100.00;78149.31;5019894;28;20049;-66
2022/04/18 05:10:01;;;;;;;4.60;2.37;;;;;;;-142.75;100.00;78141.44;5020618;28;20179;-65
2022/04/18 05:12:28;;;;;;;5.00;3.20;;;;;;;-142.75;100.00;78129.63;5020297;28;20022;-66
2022/04/18 05:14:54;;;;;;;3.47;2.20;;;;;;;-142.75;100.00;78119.78;5021368;28;20108;-65
2022/04/18 05:17:19;;;;;;;3.92;2.65;;;;;;;-142.75;100.00;78109.94;5021236;28;20040;-66
2022/04/18 05:19:46;;;;;;;4.03;2.60;;;;;;;-142.75;100.00;78111.91;5020215;28;20052;-65
2022/04/18 05:22:11;;;;;;;5.17;3.13;;;;;;;-142.75;100.00;78096.16;5019831;28;20035;-66
2022/04/18 05:24:36;;;;;;;4.93;2.47;;;;;;;-142.75;100.00;78084.34;5021455;28;20080;-66
2022/04/18 05:27:02;;;;;;;4.03;2.60;;;;;;;-142.75;100.00;78054.81;5020755;28;20100;-66
2022/04/18 05:29:28;;;;;;;4.20;2.60;;;;;;;-142.75;100.00;78042.97;5019834;28;20574;-65
2022/04/18 05:31:53;;;;;;;5.00;2.58;;;;;;;-142.75;100.00;78031.16;5018992;28;20065;-64
2022/04/18 05:34:19;;;;;;;7.25;2.90;;;;;;;-142.75;100.00;78017.38;5021038;28;20935;-66
2022/04/18 05:36:44;;;;;;;6.10;2.47;;;;;;;-142.75;100.00;78013.44;5020792;28;20391;-65
2022/04/18 05:39:09;;;;;;;5.13;2.70;;;;;;;-142.75;100.00;78003.59;5018463;28;20037;-66
2022/04/18 05:41:34;;;;;;;5.83;3.10;;;;;;;-142.75;100.00;77991.78;5041090;28;20024;-66
2022/04/18 05:44:00;;;;;;;5.07;3.03;;;;;;;-142.75;100.00;77964.22;5040042;28;21103;-65
2022/04/18 05:46:26;;;;;;;9.35;2.67;;;;;;;-142.75;100.00;77952.41;5040784;28;20288;-65
2022/04/18 05:48:52;;;;;;;4.33;3.03;;;;;;;-142.75;100.00;77932.72;5037879;28;20169;-66
2022/04/18 05:51:17;;;;;;;5.90;2.83;;;;;;;-142.75;100.00;77922.88;5040183;28;20064;-66
2022/04/18 05:53:42;;;;;;;7.23;2.73;;;;;;;-142.75;100.00;77913.03;5039440;28;20267;-64
2022/04/18 05:56:07;;;;;;;4.18;2.75;;;;;;;-142.75;100.00;77911.06;5039598;28;20029;-64
2022/04/18 05:58:34;;;;;;;4.32;2.50;;;;;;;-142.75;100.00;77909.06;5039107;28;20505;-66
2022/04/18 06:00:59;;;;;;;7.37;2.97;;;;;;;-142.75;100.00;77907.09;5037815;28;20025;-65
2022/04/18 06:03:24;;;;;;;4.15;2.78;;;;;;;-142.75;100.00;77899.22;5038169;28;20086;-66
2022/04/18 06:05:50;;;;;;;4.05;2.85;;;;;;;-142.75;100.00;77887.41;5039357;28;20509;-65
2022/04/18 06:08:15;;;;;;;3.95;2.83;;;;;;;-142.75;100.00;77857.88;5022226;28;20033;-66
2022/04/18 06:10:41;;;;;;;4.80;2.60;;;;;;;-142.75;100.00;77842.13;5018817;28;20057;-66
2022/04/18 06:13:10;;;;;;;4.63;2.30;;;;;;;-142.75;100.00;77826.38;5019414;28;20461;-64
2022/04/18 06:15:36;;;;;;;4.33;2.90;;;;;;;-142.75;100.00;77822.44;5019076;28;21488;-64
2022/04/18 06:18:01;;;;;;;4.13;2.47;;;;;;;-142.75;100.00;77818.50;5018118;28;20483;-65
2022/04/18 06:20:27;;;;;;;5.10;2.78;;;;;;;-142.75;100.00;77798.81;5018695;28;20025;-66
2022/04/18 06:22:52;;;;;;;3.35;2.65;;;;;;;-142.75;100.00;77787.00;5018630;28;20124;-66
2022/04/18 06:25:17;;;;;;;4.65;2.60;;;;;;;-142.75;100.00;77771.25;5019776;28;20025;-65
2022/04/18 06:27:43;;;;;;;4.55;2.83;;;;;;;-142.75;100.00;77767.31;5019655;28;20031;-64
2022/04/18 06:30:08;;;;;;;3.45;2.60;;;;;;;-142.75;100.00;77759.44;5019558;28;20026;-64
2022/04/18 06:32:37;;;;;;;6.13;2.60;;;;;;;-142.75;100.00;77741.72;5020524;28;20030;-65
2022/04/18 06:35:04;;;;;;;5.03;2.30;;;;;;;-142.75;100.00;77727.94;5001215;28;20503;-64
2022/04/18 06:37:30;;;;;;;7.30;2.30;;;;;;;-142.75;100.00;77706.25;4966451;28;20017;-64
2022/04/18 06:39:55;;;;;;;3.75;2.42;;;;;;;-142.75;100.00;77720.03;4981249;28;20017;-64
2022/04/18 06:42:21;;;;;;;5.75;3.03;;;;;;;-142.75;100.00;77727.94;4971486;28;20334;-64
2022/04/18 06:44:46;;;;;;;3.65;2.47;;;;;;;-142.75;100.00;77704.28;4963597;28;20123;-64
2022/04/18 06:47:12;;;;;;;4.20;2.65;;;;;;;-142.75;100.00;77674.75;4969999;28;20392;-64
2022/04/18 06:49:37;;;;;;;8.45;2.40;;;;;;;-142.75;100.00;77645.22;4973421;28;20290;-64
2022/04/18 06:52:03;;;;;;;3.92;2.53;;;;;;;-142.75;100.00;77615.69;4976118;28;20353;-65
2022/04/18 06:54:29;;;;;;;5.00;2.60;;;;;;;-142.75;100.00;77605.84;4966453;28;20032;-65
2022/04/18 06:57:00;;;;;;;5.05;2.47;;;;;;;-142.75;100.00;77596.00;4978731;28;20341;-65
2022/04/18 06:59:27;;;;;;;8.57;2.80;;;;;;;-142.75;100.00;77601.91;4982628;28;20048;-64
2022/04/18 07:01:54;;;;;;;5.07;2.60;;;;;;;-142.75;100.00;77586.16;4966709;28;20022;-65
2022/04/18 07:04:20;;;;;;;6.88;2.67;;;;;;;-142.75;100.00;77540.88;4970574;28;20035;-64
2022/04/18 07:06:45;;;;;;;7.07;3.20;;;;;;;-142.75;100.00;77483.78;4962472;28;20025;-64
2022/04/18 07:09:10;;;;;;;5.05;2.50;;;;;;;-142.75;100.00;77444.38;4966844;28;20172;-64
2022/04/18 07:11:36;;;;;;;4.93;2.47;;;;;;;-142.75;100.00;77389.25;4969650;28;20484;-64
2022/04/18 07:14:02;;;;;;;4.70;2.38;;;;;;;-142.75;99.50;77361.69;4987344;28;20469;-64
2022/04/18 07:16:30;;;;;;;4.53;2.63;;;;;;;-142.75;98.50;77332.16;4988989;28;20194;-63
2022/04/18 07:18:56;;;;;;;5.18;2.72;;;;;;;-142.75;99.65;77306.56;4988182;28;20796;-64
2022/04/18 07:21:22;;;;;;;6.63;2.47;;;;;;;-142.75;99.42;77259.31;4981192;28;20025;-64
2022/04/18 07:23:47;;;;;;;4.53;2.42;;;;;;;-142.75;97.07;77227.81;4969425;28;20172;-65
2022/04/18 07:26:12;;;;;;;7.05;2.70;;;;;;;-142.75;91.58;77200.25;4969826;28;20041;-65
2022/04/18 07:28:39;;;;;;;3.90;2.50;;;;;;;-142.75;88.84;77178.59;4968637;28;20053;-65
2022/04/18 07:31:06;;;;;;;4.10;2.50;;;;;;;-142.75;77.56;77156.94;4968578;28;20680;-65
2022/04/18 07:33:32;;;;;;;4.20;2.42;;;;;;;-142.75;75.15;77153.00;4970590;28;20052;-65
2022/04/18 07:35:58;;;;;;;3.85;2.50;;;;;;;-142.75;78.11;77147.09;4970911;28;20029;-65
2022/04/18 07:41:07;;;;;;;3.53;2.10;;;;;;;-142.75;65.79;77153.00;4988290;28;20376;-65
2022/04/18 07:43:35;;;;;;;6.55;1.52;;;;;;;-142.75;62.95;77178.59;4987477;28;20123;-65
2022/04/18 07:46:03;;;;;;;4.05;1.80;;;;;;;-142.75;62.54;77162.84;4987987;28;20060;-66
2022/04/18 07:48:33;;;;;;;3.53;1.63;;;;;;;-142.75;61.26;77188.44;4988168;28;20025;-65
2022/04/18 07:53:42;;;;;;;3.58;1.35;;;;;;;-142.75;61.18;77160.88;4983729;28;20268;-65
2022/04/18 07:56:08;;;;;;;2.28;1.27;;;;;;;-142.75;61.96;77133.31;4968769;28;20835;-65
2022/04/18 07:58:34;;;;;;;4.13;1.65;;;;;;;-142.75;60.84;77111.66;4971032;28;20032;-65
2022/04/18 08:00:59;;;;;;;3.97;1.45;;;;;;;-142.75;59.33;77103.78;4968489;28;20302;-64
2022/04/18 08:03:24;;;;;;;;;;;;;;;-142.75;58.17;77091.97;4971696;28;20501;-66
2022/04/18 08:05:50;;;;;;;4.75;1.67;;;;;;;-142.75;60.26;77046.69;4966814;28;19979;-64
2022/04/18 08:08:15;;;;;;;4.47;1.70;;;;;;;-142.75;57.10;77042.75;4967801;28;20030;-65
2022/04/18 08:10:40;;;;;;;;;;;;;;;-142.75;52.91;77007.31;4967306;28;20574;-64
2022/04/18 08:13:06;;;;;;;3.10;1.45;;;;;;;-142.75;57.56;76987.63;4967845;28;20125;-65
2022/04/18 08:15:33;;;;;;;2.40;1.08;;;;;;;-142.75;49.03;77023.06;4977953;28;20021;-65
2022/04/18 08:17:58;;;;;;;3.10;1.35;;;;;;;-142.75;50.14;76995.50;4988057;28;20032;-64
2022/04/18 08:20:25;;;;;;;3.00;1.27;;;;;;;-142.75;48.41;76964.00;4992228;28;20342;-65
2022/04/18 08:22:50;;;;;;;4.20;1.25;;;;;;;-142.75;48.25;76967.94;4992087;28;20089;-65
2022/04/18 08:25:15;;;;;;;2.33;1.23;;;;;;;-142.75;49.19;76967.94;4991895;28;20289;-64
2022/04/18 08:27:41;;;;;;;;;;;;;;;-142.75;51.27;76950.22;4992972;28;20028;-64
2022/04/18 08:30:07;;;;;;;2.55;1.42;;;;;;;-142.75;53.24;76948.25;4991109;28;19916;-64
2022/04/18 08:32:39;;;;;;;;;;;;;;;-142.75;54.13;76916.75;4992896;28;20598;-64
2022/04/18 08:35:05;;;;;;;5.80;1.10;;;;;;;-142.75;45.04;76922.66;4991748;28;19920;-64
2022/04/18 08:37:30;;;;;;;3.28;1.73;;;;;;;-142.75;49.33;76902.97;4992091;28;20040;-64
2022/04/18 08:39:56;;;;;;;;;;;;;;;-142.75;53.62;76851.78;4991542;28;20328;-65
2022/04/18 08:42:23;;;;;;;2.55;1.27;;;;;;;-142.75;47.71;76802.56;4992261;28;19913;-64
2022/04/18 08:44:54;;;;;;;3.40;1.40;;;;;;;-142.75;52.31;76790.78;4991475;28;20048;-64
2022/04/18 08:52:57;;;;;;;2.97;1.52;;;;;;;-142.75;45.12;76806.50;4991305;28;20039;-64
2022/04/18 08:55:23;;;;;;;;;;;;;;;-142.75;43.93;76814.38;4992240;28;20041;-65
2022/04/18 08:57:48;;;;;;;3.95;1.70;;;;;;;-142.75;46.96;76794.69;4985046;28;20031;-64
2022/04/18 09:00:13;;;;;;;;;;;;;;;-142.75;45.24;76767.16;4972069;28;20587;-64
2022/04/18 09:02:39;;;;;;;3.88;1.98;;;;;;;-142.75;47.62;76759.28;4971013;28;20255;-64
2022/04/18 09:05:08;;;;;;;;;;;;;;;-142.75;46.42;76775.03;4971716;28;20029;-64
2022/04/18 09:07:33;;;;;;;5.43;1.70;;;;;;;-142.75;50.85;76757.31;4971936;28;19912;-64
2022/04/18 09:09:59;;;;;;;;;;;;;;;-142.75;45.40;76706.13;4970954;28;20342;-65
2022/04/18 09:12:31;;;;;;;3.22;1.73;;;;;;;-142.75;41.27;76660.84;4971835;28;20017;-65
2022/04/18 09:14:56;;;;;;;1.90;1.30;;;;;;;-142.75;45.44;76637.22;4989930;28;20114;-64
2022/04/18 09:17:32;;;;;;;;;;;;;;;-142.75;45.75;76558.47;4991370;28;20344;-64
2022/04/18 09:20:09;;;;;;;2.47;1.52;;;;;;;-142.75;41.87;76499.44;4989960;28;20086;-64
2022/04/18 09:22:47;;;;;;;2.40;1.50;;;;;;;-142.75;38.18;76554.53;4991262;28;20037;-64
2022/04/18 09:25:20;;;;;;;2.83;1.70;;;;;;;-142.75;37.86;76613.59;4989573;28;20049;-63
2022/04/18 09:27:56;;;;;;;3.03;1.50;;;;;;;-142.75;38.18;76552.56;4989768;28;20070;-64
2022/04/18 09:30:21;;;;;;;;;;;;;;;-142.75;39.28;76546.66;4990903;28;20248;-64
2022/04/18 09:33:07;;;;;;;2.55;1.42;;;;;;;-142.75;41.98;76464.00;4991130;28;20491;-64
2022/04/18 09:35:33;;;;;;;3.58;1.67;;;;;;;-142.75;41.17;76389.19;4991266;28;20389;-64
2022/04/18 09:38:00;;;;;;;2.33;1.60;;;;;;;-142.75;34.61;76393.13;4989763;28;20563;-64
2022/04/18 09:40:26;;;;;;;3.15;1.75;;;;;;;-142.75;35.79;76418.72;4990696;28;20293;-64
2022/04/18 09:42:53;;;;;;;3.00;1.77;;;;;;;-142.75;34.81;76471.88;4988967;28;20666;-64
2022/04/18 09:45:19;;;;;;;3.80;1.80;;;;;;;-142.75;36.01;76534.84;4990648;28;20621;-64
2022/04/18 09:47:53;;;;;;;2.85;1.67;;;;;;;-142.75;39.90;76450.22;4991075;28;20020;-64
2022/04/18 09:53:05;;;;;;;2.80;1.70;;;;;;;-142.75;34.88;76353.78;4990368;28;20202;-64
2022/04/18 09:55:30;;;;;;;2.75;1.58;;;;;;;-142.75;39.89;76349.81;4990995;28;20075;-64
2022/04/18 09:58:02;;;;;;;3.47;1.70;;;;;;;-142.75;37.29;76357.69;4989581;28;20032;-64
2022/04/18 10:00:28;;;;;;;3.70;1.80;;;;;;;-142.75;35.27;76454.16;4990693;28;20025;-64
2022/04/18 10:02:53;;;;;;;3.28;1.67;;;;;;;-142.75;38.33;76381.31;4988328;28;20087;-64
2022/04/18 10:05:19;;;;;;;3.13;1.80;;;;;;;-142.75;36.16;76361.63;4990385;28;20060;-65
2022/04/18 10:07:47;;;;;;;3.90;1.92;;;;;;;-142.75;38.63;76353.78;4990277;28;20669;-64
2022/04/18 10:10:13;;;;;;;4.03;2.00;;;;;;;-142.75;40.00;76306.53;4989900;28;20025;-64
2022/04/18 10:12:38;;;;;;;4.43;2.08;;;;;;;-142.75;36.24;76286.84;4990568;28;20123;-65
2022/04/18 10:15:04;;;;;;;4.65;1.88;;;;;;;-142.75;34.10;76275.03;4990115;28;20573;-64
2022/04/18 10:17:32;;;;;;;3.63;2.00;;;;;;;-142.75;34.36;76336.06;4991114;28;20214;-64
2022/04/18 10:20:14;;;;;;;3.53;2.28;;;;;;;-142.75;34.37;76420.69;4989432;28;20240;-64
2022/04/18 10:22:39;;;;;;;2.97;1.65;;;;;;;-142.75;34.81;76373.44;4990501;28;20128;-64
2022/04/18 10:25:04;;;;;;;4.07;1.63;;;;;;;-142.75;38.15;76314.41;4990410;28;20035;-64
2022/04/18 10:27:59;;;;;;;3.55;2.25;;;;;;;-142.75;39.26;76255.34;4989898;28;20531;-64
2022/04/18 10:30:26;;;;;;;4.63;1.80;;;;;;;-142.75;39.98;76243.53;4988293;28;20198;-64
2022/04/18 10:32:52;;;;;;;3.45;1.83;;;;;;;-142.75;33.76;76241.56;4989764;28;20611;-64
2022/04/18 10:35:21;;;;;;;2.85;1.50;;;;;;;-142.75;33.58;76265.19;4982711;28;20345;-64
2022/04/18 10:37:53;;;;;;;2.72;1.60;;;;;;;-142.75;31.86;76202.19;4982220;28;20029;-64
2022/04/18 10:40:19;;;;;;;5.43;1.83;;;;;;;-142.75;31.34;76190.41;4988283;28;20342;-64
2022/04/18 10:42:45;;;;;;;4.57;1.90;;;;;;;-142.75;31.50;76204.16;4990600;28;20927;-64
2022/04/18 10:45:18;;;;;;;2.45;1.60;;;;;;;-142.75;37.70;76141.19;4990468;28;20029;-64
2022/04/18 10:47:55;;;;;;;3.03;1.73;;;;;;;-142.75;35.04;76105.75;4990048;28;20117;-64
2022/04/18 10:50:24;;;;;;;3.88;1.65;;;;;;;-142.75;33.66;76040.81;4987123;28;20574;-64
2022/04/18 10:53:09;;;;;;;3.35;1.60;;;;;;;-142.75;30.14;75993.56;4974134;28;20323;-64
2022/04/18 10:55:40;;;;;;;2.72;1.85;;;;;;;-142.75;28.76;75993.56;4970168;28;20067;-63
2022/04/18 10:58:16;;;;;;;6.25;2.28;;;;;;;-142.75;30.69;75967.97;4979920;28;20326;-64
2022/04/18 11:00:53;;;;;;;2.47;1.77;;;;;;;-142.75;29.93;75967.97;4980452;28;20573;-65
2022/04/18 11:03:40;;;;;;;5.93;1.90;;;;;;;-142.75;28.01;75967.97;4979694;28;20041;-63
2022/04/18 11:06:17;;;;;;;5.78;2.28;;;;;;;-142.75;28.82;75993.56;4985548;28;20025;-63
2022/04/18 11:09:01;;;;;;;3.53;2.20;;;;;;;-142.75;30.19;76082.13;4989004;28;20017;-63
2022/04/18 11:11:34;;;;;;;3.85;2.38;;;;;;;-142.75;29.69;76058.53;4989862;28;20198;-63
2022/04/18 11:14:00;;;;;;;4.40;2.30;;;;;;;-142.75;30.91;76074.25;4989164;28;20183;-64
2022/04/18 11:16:25;;;;;;;4.25;2.00;;;;;;;-142.75;31.81;76046.72;4988583;28;20194;-63
2022/04/18 11:19:10;;;;;;;3.85;2.03;;;;;;;-142.75;30.16;75991.59;4989121;28;20532;-63
2022/04/18 11:22:01;;;;;;;3.65;2.13;;;;;;;-142.75;29.63;75964.03;4989997;28;20665;-63
2022/04/18 11:24:40;;;;;;;3.20;2.17;;;;;;;-142.75;30.59;75975.84;4989797;28;20017;-63
2022/04/18 11:27:29;;;;;;;4.80;2.10;;;;;;;-142.75;32.89;75956.19;4989403;28;20090;-63
2022/04/18 11:29:59;;;;;;;3.65;2.10;;;;;;;-142.75;28.81;75954.22;5009462;22;20543;-63
2022/04/18 11:32:31;;;;;;;4.22;2.05;;;;;;;-142.75;30.78;75997.50;4970287;28;20060;-64
2022/04/18 11:35:01;;;;;;;5.63;2.15;;;;;;;-142.75;30.91;75999.47;4969791;28;20556;-65